This demonstration page uses our WeatherBlox Daily Observations layout. Learn more.

36.17497, -115.13722

Hourly Observations for October 24, 2018

Temp ( °F °C ) Dew Point ( °F °C ) Humidity (%) Winds ( mph kmh ) Pressure ( in mb ) Visibility ( mi km ) Precip ( " mm )
12:53 am 00:53 Clear 63 17.2 38 3.3 40 40 Calm 29.94 1014 10 16.09344 0 0
1:53 am 01:53 Clear 62 16.7 40 4.4 44 44 Calm 29.94 1014 10 16.09344 0 0
2:53 am 02:53 Clear 61 16.1 40 4.4 46 46 Calm 29.94 1014 10 16.09344 0 0
3:53 am 03:53 Clear 61 16.1 39 3.9 44 44 WNW 3 6 29.94 1014 10 16.09344 0 0
4:53 am 04:53 Clear 61 16.1 39 3.9 44 44 NNW 3 6 29.94 1014 10 16.09344 0 0
5:53 am 05:53 Clear 62 16.7 39 3.9 43 43 Calm 29.94 1014 10 16.09344 0 0
6:53 am 06:53 Clear 59 15 40 4.4 49 49 Calm 29.97 1015 10 16.09344 0 0
7:53 am 07:53 Sunny 63 17.2 35 1.7 35 35 NW 8 13 30 1016 10 16.09344 0 0
8:53 am 08:53 Sunny 69 20.6 35 1.7 29 29 NNW 8 13 30 1016 10 16.09344 0 0
9:53 am 09:53 Sunny 73 22.8 36 2.2 26 26 NE 3 6 30.03 1017 10 16.09344 0 0
10:53 am 10:53 Sunny 73 22.8 36 2.2 26 26 ESE 3 6 30.03 1017 10 16.09344 0 0
11:53 am 11:53 Sunny 76 24.4 37 2.8 24 24 N 6 9 30 1016 10 16.09344 0 0
12:53 pm 12:53 Sunny 77 25 36 2.2 23 23 Calm 29.97 1015 10 16.09344 0 0
1:53 pm 13:53 Sunny 79 26.1 37 2.8 22 22 S 8 13 29.94 1014 10 16.09344 0 0
2:53 pm 14:53 Sunny 80 26.7 36 2.2 20 20 SSE 6 9 29.94 1014 10 16.09344 0 0
3:53 pm 15:53 Sunny 81 27.2 34 1.1 18 18 ENE 3 6 29.94 1014 10 16.09344 0 0
4:53 pm 16:53 Sunny 80 26.7 33 0.6 18 18 E 5 7 29.91 1013 10 16.09344 0 0
5:53 pm 17:53 Sunny 78 25.6 32 0 19 19 SE 5 7 29.94 1014 10 16.09344 0 0
6:53 pm 18:53 Clear 77 25 31 -0.6 18 18 Calm 29.94 1014 10 16.09344 0 0
7:53 pm 19:53 Clear 72 22.2 36 2.2 27 27 W 3 6 29.97 1015 10 16.09344 0 0
8:53 pm 20:53 Clear 69 20.6 38 3.3 32 32 NNW 5 7 29.97 1015 10 16.09344 0 0
9:53 pm 21:53 Clear 68 20 38 3.3 33 33 NW 5 7 29.97 1015 10 16.09344 0 0
10:53 pm 22:53 Clear 65 18.3 39 3.9 39 39 NW 5 7 30 1016 10 16.09344 0 0
11:53 pm 23:53 Clear 64 17.8 40 4.4 41 41 N 5 7 30 1016 10 16.09344 0 0

Powered by AerisWeather